sensor_id;sensor_type;location;lat;lon;timestamp;P1;durP1;ratioP1;P2;durP2;ratioP2
21030;SDS011;61072;47.808;7.636;2023-01-16T07:06:10;1.13;;;0.70;;
21030;SDS011;61072;47.808;7.636;2023-01-16T07:08:38;3.40;;;0.70;;
21030;SDS011;61072;47.808;7.636;2023-01-16T07:11:05;2.03;;;0.60;;
21030;SDS011;61072;47.808;7.636;2023-01-16T07:13:33;1.38;;;0.60;;
21030;SDS011;61072;47.808;7.636;2023-01-16T07:16:00;0.40;;;0.40;;
21030;SDS011;61072;47.808;7.636;2023-01-16T07:18:45;0.50;;;0.50;;
21030;SDS011;61072;47.808;7.636;2023-01-16T07:21:31;1.15;;;0.73;;
21030;SDS011;61072;47.808;7.636;2023-01-16T07:24:18;2.90;;;0.60;;
21030;SDS011;61072;47.808;7.636;2023-01-16T07:26:50;1.38;;;0.50;;
21030;SDS011;61072;47.808;7.636;2023-01-16T07:29:24;1.05;;;0.73;;
21030;SDS011;61072;47.808;7.636;2023-01-16T07:31:51;0.70;;;0.60;;
21030;SDS011;61072;47.808;7.636;2023-01-16T07:34:18;0.80;;;0.50;;
21030;SDS011;61072;47.808;7.636;2023-01-16T07:36:45;0.68;;;0.57;;
21030;SDS011;61072;47.808;7.636;2023-01-16T07:39:12;2.17;;;0.60;;
21030;SDS011;61072;47.808;7.636;2023-01-16T07:41:38;0.75;;;0.52;;
21030;SDS011;61072;47.808;7.636;2023-01-16T07:44:21;2.15;;;0.60;;
21030;SDS011;61072;47.808;7.636;2023-01-16T07:46:48;0.93;;;0.50;;
21030;SDS011;61072;47.808;7.636;2023-01-16T07:49:15;0.50;;;0.50;;
21030;SDS011;61072;47.808;7.636;2023-01-16T07:51:42;1.05;;;0.57;;
21030;SDS011;61072;47.808;7.636;2023-01-16T07:54:08;0.57;;;0.50;;
21030;SDS011;61072;47.808;7.636;2023-01-16T07:56:35;0.95;;;0.52;;
21030;SDS011;61072;47.808;7.636;2023-01-16T07:59:02;2.05;;;0.80;;
21030;SDS011;61072;47.808;7.636;2023-01-16T08:01:29;2.63;;;0.50;;
21030;SDS011;61072;47.808;7.636;2023-01-16T08:03:55;0.63;;;0.60;;
21030;SDS011;61072;47.808;7.636;2023-01-16T08:06:22;1.33;;;0.60;;
21030;SDS011;61072;47.808;7.636;2023-01-16T08:08:49;2.05;;;0.60;;
21030;SDS011;61072;47.808;7.636;2023-01-16T08:11:16;0.75;;;0.63;;
21030;SDS011;61072;47.808;7.636;2023-01-16T08:14:02;1.45;;;0.40;;
21030;SDS011;61072;47.808;7.636;2023-01-16T08:16:29;1.85;;;1.13;;
21030;SDS011;61072;47.808;7.636;2023-01-16T08:18:57;1.55;;;0.60;;
21030;SDS011;61072;47.808;7.636;2023-01-16T08:21:23;0.65;;;0.55;;
21030;SDS011;61072;47.808;7.636;2023-01-16T08:23:51;0.60;;;0.60;;
21030;SDS011;61072;47.808;7.636;2023-01-16T08:26:17;2.03;;;0.73;;
21030;SDS011;61072;47.808;7.636;2023-01-16T08:28:44;1.55;;;0.68;;
21030;SDS011;61072;47.808;7.636;2023-01-16T08:31:11;0.90;;;0.50;;
21030;SDS011;61072;47.808;7.636;2023-01-16T08:33:40;0.60;;;0.60;;
21030;SDS011;61072;47.808;7.636;2023-01-16T08:36:09;0.80;;;0.40;;
21030;SDS011;61072;47.808;7.636;2023-01-16T08:38:37;0.80;;;0.60;;
21030;SDS011;61072;47.808;7.636;2023-01-16T08:41:04;2.15;;;0.65;;
21030;SDS011;61072;47.808;7.636;2023-01-16T08:43:51;0.80;;;0.80;;
21030;SDS011;61072;47.808;7.636;2023-01-16T08:46:37;2.97;;;0.80;;
21030;SDS011;61072;47.808;7.636;2023-01-16T08:49:22;0.70;;;0.60;;
21030;SDS011;61072;47.808;7.636;2023-01-16T08:52:07;1.30;;;0.80;;
21030;SDS011;61072;47.808;7.636;2023-01-16T08:54:34;0.65;;;0.57;;
21030;SDS011;61072;47.808;7.636;2023-01-16T08:57:01;0.95;;;0.60;;
21030;SDS011;61072;47.808;7.636;2023-01-16T08:59:28;1.65;;;0.90;;
21030;SDS011;61072;47.808;7.636;2023-01-16T09:02:02;1.42;;;0.90;;
21030;SDS011;61072;47.808;7.636;2023-01-16T09:04:33;3.28;;;0.98;;
21030;SDS011;61072;47.808;7.636;2023-01-16T09:07:01;1.95;;;0.82;;
21030;SDS011;61072;47.808;7.636;2023-01-16T09:09:27;2.00;;;0.70;;
21030;SDS011;61072;47.808;7.636;2023-01-16T09:11:56;0.82;;;0.47;;
21030;SDS011;61072;47.808;7.636;2023-01-16T09:14:42;0.80;;;0.60;;
21030;SDS011;61072;47.808;7.636;2023-01-16T09:17:09;0.30;;;0.30;;
21030;SDS011;61072;47.808;7.636;2023-01-16T09:19:36;0.57;;;0.40;;
21030;SDS011;61072;47.808;7.636;2023-01-16T09:22:03;0.60;;;0.43;;
21030;SDS011;61072;47.808;7.636;2023-01-16T09:24:34;0.55;;;0.30;;
21030;SDS011;61072;47.808;7.636;2023-01-16T09:27:01;0.77;;;0.60;;
21030;SDS011;61072;47.808;7.636;2023-01-16T09:29:29;0.77;;;0.50;;
21030;SDS011;61072;47.808;7.636;2023-01-16T09:31:55;1.75;;;0.30;;
21030;SDS011;61072;47.808;7.636;2023-01-16T09:34:22;0.20;;;0.20;;
21030;SDS011;61072;47.808;7.636;2023-01-16T09:36:49;3.30;;;0.40;;
21030;SDS011;61072;47.808;7.636;2023-01-16T09:39:16;0.85;;;0.30;;
21030;SDS011;61072;47.808;7.636;2023-01-16T09:42:32;4.57;;;0.40;;
21030;SDS011;61072;47.808;7.636;2023-01-16T09:44:48;0.35;;;0.30;;
21030;SDS011;61072;47.808;7.636;2023-01-16T09:47:18;0.43;;;0.43;;
21030;SDS011;61072;47.808;7.636;2023-01-16T09:49:52;0.22;;;0.20;;
21030;SDS011;61072;47.808;7.636;2023-01-16T09:52:24;0.20;;;0.20;;
21030;SDS011;61072;47.808;7.636;2023-01-16T09:55:19;0.20;;;0.20;;
21030;SDS011;61072;47.808;7.636;2023-01-16T09:58:14;0.15;;;0.15;;
21030;SDS011;61072;47.808;7.636;2023-01-16T10:01:15;0.68;;;0.20;;
21030;SDS011;61072;47.808;7.636;2023-01-16T10:03:48;0.30;;;0.30;;
21030;SDS011;61072;47.808;7.636;2023-01-16T10:06:23;1.95;;;0.50;;
21030;SDS011;61072;47.808;7.636;2023-01-16T10:11:48;1.98;;;0.40;;
21030;SDS011;61072;47.808;7.636;2023-01-16T10:17:19;1.38;;;0.40;;
21030;SDS011;61072;47.808;7.636;2023-01-16T10:22:38;0.70;;;0.40;;
21030;SDS011;61072;47.808;7.636;2023-01-16T10:25:14;0.30;;;0.30;;
21030;SDS011;61072;47.808;7.636;2023-01-16T10:30:31;0.95;;;0.43;;
21030;SDS011;61072;47.808;7.636;2023-01-16T10:35:49;0.63;;;0.30;;
21030;SDS011;61072;47.808;7.636;2023-01-16T10:41:09;0.30;;;0.30;;
21030;SDS011;61072;47.808;7.636;2023-01-16T10:44:05;0.20;;;0.20;;
21030;SDS011;61072;47.808;7.636;2023-01-16T10:47:08;1.70;;;0.22;;
21030;SDS011;61072;47.808;7.636;2023-01-16T10:49:55;0.20;;;0.20;;
21030;SDS011;61072;47.808;7.636;2023-01-16T10:52:22;0.20;;;0.20;;
21030;SDS011;61072;47.808;7.636;2023-01-16T10:54:51;0.25;;;0.25;;
21030;SDS011;61072;47.808;7.636;2023-01-16T10:57:20;0.20;;;0.20;;
21030;SDS011;61072;47.808;7.636;2023-01-16T10:59:49;0.75;;;0.20;;
21030;SDS011;61072;47.808;7.636;2023-01-16T11:02:38;0.22;;;0.20;;
21030;SDS011;61072;47.808;7.636;2023-01-16T11:07:52;0.52;;;0.30;;
21030;SDS011;61072;47.808;7.636;2023-01-16T11:10:20;0.30;;;0.30;;
21030;SDS011;61072;47.808;7.636;2023-01-16T11:12:48;0.40;;;0.30;;
21030;SDS011;61072;47.808;7.636;2023-01-16T11:15:33;0.20;;;0.20;;
21030;SDS011;61072;47.808;7.636;2023-01-16T11:21:16;0.70;;;0.40;;
21030;SDS011;61072;47.808;7.636;2023-01-16T11:24:10;1.45;;;0.40;;
21030;SDS011;61072;47.808;7.636;2023-01-16T11:26:48;0.35;;;0.30;;
21030;SDS011;61072;47.808;7.636;2023-01-16T11:29:17;0.30;;;0.30;;
21030;SDS011;61072;47.808;7.636;2023-01-16T11:31:50;1.48;;;0.60;;
21030;SDS011;61072;47.808;7.636;2023-01-16T11:34:21;0.60;;;0.40;;
21030;SDS011;61072;47.808;7.636;2023-01-16T11:36:53;1.60;;;0.50;;
21030;SDS011;61072;47.808;7.636;2023-01-16T11:39:23;0.25;;;0.25;;
21030;SDS011;61072;47.808;7.636;2023-01-16T11:44:21;0.32;;;0.32;;
21030;SDS011;61072;47.808;7.636;2023-01-16T11:47:21;0.20;;;0.20;;
21030;SDS011;61072;47.808;7.636;2023-01-16T11:49:52;0.20;;;0.20;;
21030;SDS011;61072;47.808;7.636;2023-01-16T11:52:20;0.20;;;0.20;;
21030;SDS011;61072;47.808;7.636;2023-01-16T11:54:55;1.77;;;0.40;;
21030;SDS011;61072;47.808;7.636;2023-01-16T12:00:17;2.10;;;0.60;;
21030;SDS011;61072;47.808;7.636;2023-01-16T12:06:04;0.28;;;0.28;;
21030;SDS011;61072;47.808;7.636;2023-01-16T12:09:11;0.30;;;0.30;;
21030;SDS011;61072;47.808;7.636;2023-01-16T12:20:00;0.57;;;0.20;;
21030;SDS011;61072;47.808;7.636;2023-01-16T12:33:43;0.40;;;0.32;;
21030;SDS011;61072;47.808;7.636;2023-01-16T12:36:43;0.40;;;0.30;;
21030;SDS011;61072;47.808;7.636;2023-01-16T12:42:34;0.30;;;0.30;;
21030;SDS011;61072;47.808;7.636;2023-01-16T12:45:36;0.32;;;0.28;;
21030;SDS011;61072;47.808;7.636;2023-01-16T12:54:16;0.60;;;0.30;;
21030;SDS011;61072;47.808;7.636;2023-01-16T12:56:57;0.38;;;0.30;;
21030;SDS011;61072;47.808;7.636;2023-01-16T12:59:51;0.40;;;0.40;;
21030;SDS011;61072;47.808;7.636;2023-01-16T13:05:33;0.68;;;0.50;;
21030;SDS011;61072;47.808;7.636;2023-01-16T13:11:08;2.20;;;0.40;;
21030;SDS011;61072;47.808;7.636;2023-01-16T13:14:04;0.20;;;0.20;;
21030;SDS011;61072;47.808;7.636;2023-01-16T13:16:42;0.22;;;0.22;;
21030;SDS011;61072;47.808;7.636;2023-01-16T13:19:32;0.40;;;0.40;;
21030;SDS011;61072;47.808;7.636;2023-01-16T13:24:53;0.20;;;0.20;;
21030;SDS011;61072;47.808;7.636;2023-01-16T13:27:41;0.47;;;0.30;;
21030;SDS011;61072;47.808;7.636;2023-01-16T13:30:17;0.50;;;0.50;;
21030;SDS011;61072;47.808;7.636;2023-01-16T13:32:48;0.60;;;0.55;;
21030;SDS011;61072;47.808;7.636;2023-01-16T13:35:32;1.85;;;0.30;;
21030;SDS011;61072;47.808;7.636;2023-01-16T13:43:33;0.40;;;0.40;;
21030;SDS011;61072;47.808;7.636;2023-01-16T13:46:23;1.17;;;0.40;;
21030;SDS011;61072;47.808;7.636;2023-01-16T13:48:52;0.20;;;0.20;;
21030;SDS011;61072;47.808;7.636;2023-01-16T13:51:21;0.40;;;0.40;;
21030;SDS011;61072;47.808;7.636;2023-01-16T13:53:52;0.47;;;0.32;;
21030;SDS011;61072;47.808;7.636;2023-01-16T13:56:26;0.57;;;0.38;;
21030;SDS011;61072;47.808;7.636;2023-01-16T13:58:56;0.55;;;0.30;;
21030;SDS011;61072;47.808;7.636;2023-01-16T14:01:33;1.70;;;0.40;;
21030;SDS011;61072;47.808;7.636;2023-01-16T14:06:47;0.30;;;0.30;;
21030;SDS011;61072;47.808;7.636;2023-01-16T14:19:20;0.40;;;0.40;;
21030;SDS011;61072;47.808;7.636;2023-01-16T14:21:47;0.40;;;0.40;;
21030;SDS011;61072;47.808;7.636;2023-01-16T14:24:39;0.45;;;0.40;;
21030;SDS011;61072;47.808;7.636;2023-01-16T14:27:12;6.18;;;0.70;;
21030;SDS011;61072;47.808;7.636;2023-01-16T14:29:48;1.73;;;0.60;;
21030;SDS011;61072;47.808;7.636;2023-01-16T14:32:25;0.80;;;0.50;;
21030;SDS011;61072;47.808;7.636;2023-01-16T14:37:36;1.05;;;0.63;;
21030;SDS011;61072;47.808;7.636;2023-01-16T14:48:05;1.45;;;0.70;;
21030;SDS011;61072;47.808;7.636;2023-01-16T14:56:41;1.45;;;0.38;;
21030;SDS011;61072;47.808;7.636;2023-01-16T14:59:29;2.25;;;0.50;;
21030;SDS011;61072;47.808;7.636;2023-01-16T15:04:54;1.08;;;0.68;;
21030;SDS011;61072;47.808;7.636;2023-01-16T15:08:07;1.30;;;0.82;;
21030;SDS011;61072;47.808;7.636;2023-01-16T15:12:43;1.20;;;0.60;;
21030;SDS011;61072;47.808;7.636;2023-01-16T15:15:24;0.90;;;0.55;;
21030;SDS011;61072;47.808;7.636;2023-01-16T15:17:56;1.70;;;0.40;;
21030;SDS011;61072;47.808;7.636;2023-01-16T15:20:44;0.73;;;0.50;;
21030;SDS011;61072;47.808;7.636;2023-01-16T15:23:31;1.13;;;0.50;;
21030;SDS011;61072;47.808;7.636;2023-01-16T15:26:11;2.10;;;0.80;;
21030;SDS011;61072;47.808;7.636;2023-01-16T15:28:51;0.77;;;0.65;;
21030;SDS011;61072;47.808;7.636;2023-01-16T15:31:32;0.65;;;0.50;;
21030;SDS011;61072;47.808;7.636;2023-01-16T15:34:18;0.77;;;0.57;;
21030;SDS011;61072;47.808;7.636;2023-01-16T15:36:48;2.80;;;0.40;;
21030;SDS011;61072;47.808;7.636;2023-01-16T15:39:18;1.13;;;0.55;;
21030;SDS011;61072;47.808;7.636;2023-01-16T15:41:56;2.75;;;0.50;;
21030;SDS011;61072;47.808;7.636;2023-01-16T15:44:57;0.68;;;0.45;;
21030;SDS011;61072;47.808;7.636;2023-01-16T15:50:43;0.70;;;0.57;;
21030;SDS011;61072;47.808;7.636;2023-01-16T15:53:12;1.75;;;0.60;;
21030;SDS011;61072;47.808;7.636;2023-01-16T15:55:44;0.75;;;0.60;;
21030;SDS011;61072;47.808;7.636;2023-01-16T15:58:14;4.03;;;0.98;;
21030;SDS011;61072;47.808;7.636;2023-01-16T16:00:44;0.93;;;0.60;;
21030;SDS011;61072;47.808;7.636;2023-01-16T16:03:18;2.70;;;0.80;;
21030;SDS011;61072;47.808;7.636;2023-01-16T16:05:50;2.30;;;0.70;;
21030;SDS011;61072;47.808;7.636;2023-01-16T16:08:27;1.75;;;0.85;;
21030;SDS011;61072;47.808;7.636;2023-01-16T16:10:58;1.95;;;0.80;;
21030;SDS011;61072;47.808;7.636;2023-01-16T16:13:44;2.30;;;1.42;;
21030;SDS011;61072;47.808;7.636;2023-01-16T16:16:16;2.10;;;0.80;;
21030;SDS011;61072;47.808;7.636;2023-01-16T16:19:07;1.05;;;0.60;;
21030;SDS011;61072;47.808;7.636;2023-01-16T16:21:42;4.15;;;1.05;;
21030;SDS011;61072;47.808;7.636;2023-01-16T16:24:33;2.42;;;1.13;;
21030;SDS011;61072;47.808;7.636;2023-01-16T16:27:11;2.40;;;0.95;;
21030;SDS011;61072;47.808;7.636;2023-01-16T16:29:40;2.78;;;1.40;;
21030;SDS011;61072;47.808;7.636;2023-01-16T16:32:11;2.40;;;0.85;;
21030;SDS011;61072;47.808;7.636;2023-01-16T16:34:42;2.40;;;0.98;;
21030;SDS011;61072;47.808;7.636;2023-01-16T16:37:22;5.85;;;1.15;;
21030;SDS011;61072;47.808;7.636;2023-01-16T16:40:08;3.35;;;1.42;;
21030;SDS011;61072;47.808;7.636;2023-01-16T16:45:12;5.63;;;1.85;;
21030;SDS011;61072;47.808;7.636;2023-01-16T16:47:42;3.78;;;1.73;;
21030;SDS011;61072;47.808;7.636;2023-01-16T16:53:10;3.10;;;1.40;;
21030;SDS011;61072;47.808;7.636;2023-01-16T16:55:39;3.45;;;1.42;;
21030;SDS011;61072;47.808;7.636;2023-01-16T17:00:47;2.15;;;1.23;;
21030;SDS011;61072;47.808;7.636;2023-01-16T17:03:24;3.83;;;2.60;;
21030;SDS011;61072;47.808;7.636;2023-01-16T17:05:52;4.63;;;1.80;;
21030;SDS011;61072;47.808;7.636;2023-01-16T17:08:24;4.85;;;1.70;;
21030;SDS011;61072;47.808;7.636;2023-01-16T17:10:55;3.85;;;1.25;;
21030;SDS011;61072;47.808;7.636;2023-01-16T17:13:23;3.67;;;0.82;;
21030;SDS011;61072;47.808;7.636;2023-01-16T17:15:52;1.15;;;0.63;;
21030;SDS011;61072;47.808;7.636;2023-01-16T17:18:24;4.07;;;0.80;;
21030;SDS011;61072;47.808;7.636;2023-01-16T17:20:52;1.00;;;0.73;;
21030;SDS011;61072;47.808;7.636;2023-01-16T17:23:20;2.08;;;1.00;;
21030;SDS011;61072;47.808;7.636;2023-01-16T17:25:49;1.77;;;0.73;;
21030;SDS011;61072;47.808;7.636;2023-01-16T17:28:16;1.52;;;1.00;;
21030;SDS011;61072;47.808;7.636;2023-01-16T17:30:43;7.00;;;1.42;;
21030;SDS011;61072;47.808;7.636;2023-01-16T17:35:37;2.55;;;1.25;;
21030;SDS011;61072;47.808;7.636;2023-01-16T17:38:12;1.42;;;0.90;;
21030;SDS011;61072;47.808;7.636;2023-01-16T17:40:40;3.40;;;1.10;;
21030;SDS011;61072;47.808;7.636;2023-01-16T17:43:18;5.00;;;1.45;;
21030;SDS011;61072;47.808;7.636;2023-01-16T17:46:06;1.55;;;1.00;;
21030;SDS011;61072;47.808;7.636;2023-01-16T17:48:36;3.65;;;1.45;;
21030;SDS011;61072;47.808;7.636;2023-01-16T17:51:03;1.98;;;1.17;;
21030;SDS011;61072;47.808;7.636;2023-01-16T17:53:30;7.90;;;3.33;;
21030;SDS011;61072;47.808;7.636;2023-01-16T17:55:59;5.15;;;3.28;;
21030;SDS011;61072;47.808;7.636;2023-01-16T17:58:29;3.35;;;1.38;;
21030;SDS011;61072;47.808;7.636;2023-01-16T18:01:13;6.88;;;2.80;;
21030;SDS011;61072;47.808;7.636;2023-01-16T18:03:45;5.55;;;2.00;;
21030;SDS011;61072;47.808;7.636;2023-01-16T18:06:24;5.20;;;1.83;;
21030;SDS011;61072;47.808;7.636;2023-01-16T18:08:52;4.03;;;1.70;;
21030;SDS011;61072;47.808;7.636;2023-01-16T18:11:20;2.78;;;1.38;;
21030;SDS011;61072;47.808;7.636;2023-01-16T18:14:10;3.35;;;0.90;;
21030;SDS011;61072;47.808;7.636;2023-01-16T18:16:57;6.32;;;1.58;;
21030;SDS011;61072;47.808;7.636;2023-01-16T18:19:45;3.88;;;0.90;;
21030;SDS011;61072;47.808;7.636;2023-01-16T18:22:32;2.30;;;0.73;;
21030;SDS011;61072;47.808;7.636;2023-01-16T18:25:03;3.58;;;1.48;;
21030;SDS011;61072;47.808;7.636;2023-01-16T18:27:31;3.28;;;1.02;;
21030;SDS011;61072;47.808;7.636;2023-01-16T18:29:58;0.77;;;0.77;;
21030;SDS011;61072;47.808;7.636;2023-01-16T18:32:26;2.28;;;0.82;;
21030;SDS011;61072;47.808;7.636;2023-01-16T18:40:00;3.20;;;1.58;;
21030;SDS011;61072;47.808;7.636;2023-01-16T18:43:04;1.58;;;1.00;;
21030;SDS011;61072;47.808;7.636;2023-01-16T18:45:49;3.60;;;1.00;;
21030;SDS011;61072;47.808;7.636;2023-01-16T18:48:34;3.67;;;0.90;;
21030;SDS011;61072;47.808;7.636;2023-01-16T18:51:20;1.80;;;0.85;;
21030;SDS011;61072;47.808;7.636;2023-01-16T18:54:15;2.65;;;1.20;;
21030;SDS011;61072;47.808;7.636;2023-01-16T18:57:08;3.70;;;0.77;;
21030;SDS011;61072;47.808;7.636;2023-01-16T18:59:56;1.08;;;0.95;;
21030;SDS011;61072;47.808;7.636;2023-01-16T19:02:42;1.83;;;1.10;;
21030;SDS011;61072;47.808;7.636;2023-01-16T19:05:10;1.90;;;1.00;;
21030;SDS011;61072;47.808;7.636;2023-01-16T19:07:38;3.85;;;0.70;;
21030;SDS011;61072;47.808;7.636;2023-01-16T19:10:18;4.00;;;0.98;;
21030;SDS011;61072;47.808;7.636;2023-01-16T19:12:47;2.88;;;2.00;;
21030;SDS011;61072;47.808;7.636;2023-01-16T19:15:16;3.88;;;1.00;;
21030;SDS011;61072;47.808;7.636;2023-01-16T19:17:44;1.10;;;0.80;;
21030;SDS011;61072;47.808;7.636;2023-01-16T19:20:11;1.38;;;1.10;;
21030;SDS011;61072;47.808;7.636;2023-01-16T19:22:40;3.72;;;1.55;;
21030;SDS011;61072;47.808;7.636;2023-01-16T19:25:07;1.85;;;1.05;;
21030;SDS011;61072;47.808;7.636;2023-01-16T19:27:34;3.30;;;1.40;;
21030;SDS011;61072;47.808;7.636;2023-01-16T19:30:00;3.58;;;1.73;;
21030;SDS011;61072;47.808;7.636;2023-01-16T19:32:27;2.70;;;1.27;;
21030;SDS011;61072;47.808;7.636;2023-01-16T19:34:54;3.05;;;0.88;;
21030;SDS011;61072;47.808;7.636;2023-01-16T19:37:21;2.80;;;1.20;;
21030;SDS011;61072;47.808;7.636;2023-01-16T19:39:48;1.40;;;0.80;;
21030;SDS011;61072;47.808;7.636;2023-01-16T19:42:15;1.90;;;0.93;;
21030;SDS011;61072;47.808;7.636;2023-01-16T19:45:00;2.83;;;0.93;;
21030;SDS011;61072;47.808;7.636;2023-01-16T19:47:46;2.30;;;0.95;;
21030;SDS011;61072;47.808;7.636;2023-01-16T19:50:13;1.20;;;0.80;;
21030;SDS011;61072;47.808;7.636;2023-01-16T19:52:39;1.52;;;0.90;;
21030;SDS011;61072;47.808;7.636;2023-01-16T19:55:06;1.75;;;0.63;;
21030;SDS011;61072;47.808;7.636;2023-01-16T19:57:33;1.73;;;0.80;;
21030;SDS011;61072;47.808;7.636;2023-01-16T20:00:00;0.82;;;0.80;;
21030;SDS011;61072;47.808;7.636;2023-01-16T20:02:29;3.65;;;1.05;;
21030;SDS011;61072;47.808;7.636;2023-01-16T20:04:56;1.05;;;0.95;;
21030;SDS011;61072;47.808;7.636;2023-01-16T20:07:23;2.88;;;1.58;;
21030;SDS011;61072;47.808;7.636;2023-01-16T20:09:50;2.60;;;1.08;;
21030;SDS011;61072;47.808;7.636;2023-01-16T20:12:16;3.08;;;1.67;;
21030;SDS011;61072;47.808;7.636;2023-01-16T20:14:50;4.38;;;0.95;;
21030;SDS011;61072;47.808;7.636;2023-01-16T20:17:18;1.48;;;0.90;;
21030;SDS011;61072;47.808;7.636;2023-01-16T20:19:45;2.65;;;1.25;;
21030;SDS011;61072;47.808;7.636;2023-01-16T20:22:11;2.00;;;0.73;;
21030;SDS011;61072;47.808;7.636;2023-01-16T20:24:48;2.17;;;0.77;;
21030;SDS011;61072;47.808;7.636;2023-01-16T20:27:15;1.00;;;0.68;;
21030;SDS011;61072;47.808;7.636;2023-01-16T20:29:43;2.35;;;0.88;;
21030;SDS011;61072;47.808;7.636;2023-01-16T20:32:12;1.53;;;0.83;;
